sensor_id;sensor_type;location;lat;lon;timestamp;P1;P2;P0
45788;PMS7003;31492;54.856;26.318;2022-11-20T01:29:24;16.7;13.3;11
45788;PMS7003;31492;54.856;26.318;2022-11-20T01:34:03;24.4;20.6;14.8
45788;PMS7003;31492;54.856;26.318;2022-11-20T01:39:03;25;21.6;15.2
45788;PMS7003;31492;54.856;26.318;2022-11-20T01:44:02;23;20.6;14
45788;PMS7003;31492;54.856;26.318;2022-11-20T01:49:14;24;19.5;13.8
45788;PMS7003;31492;54.856;26.318;2022-11-20T01:54:25;21.8;19.6;13.4
45788;PMS7003;31492;54.856;26.318;2022-11-20T01:59:03;25.6;22.4;15.2
45788;PMS7003;31492;54.856;26.318;2022-11-20T02:04:02;23.8;20.8;14
45788;PMS7003;31492;54.856;26.318;2022-11-20T02:09:02;25.2;22.2;15.4
45788;PMS7003;31492;54.856;26.318;2022-11-20T02:14:02;24.5;22;14.8
45788;PMS7003;31492;54.856;26.318;2022-11-20T02:19:03;20.6;18.6;13.4
45788;PMS7003;31492;54.856;26.318;2022-11-20T02:24:03;20;17;12
45788;PMS7003;31492;54.856;26.318;2022-11-20T02:29:10;21;16.8;11.6
45788;PMS7003;31492;54.856;26.318;2022-11-20T02:34:50;19.8;17.3;13.3
45788;PMS7003;31492;54.856;26.318;2022-11-20T02:39:02;18.4;15.8;12.2
45788;PMS7003;31492;54.856;26.318;2022-11-20T02:44:03;18;15.8;11.4
45788;PMS7003;31492;54.856;26.318;2022-11-20T02:49:02;19;16.4;12.4
45788;PMS7003;31492;54.856;26.318;2022-11-20T02:54:02;19.5;16.8;11.3
45788;PMS7003;31492;54.856;26.318;2022-11-20T02:59:22;22.2;18.4;12.8
45788;PMS7003;31492;54.856;26.318;2022-11-20T03:04:22;21;18.2;12.6
45788;PMS7003;31492;54.856;26.318;2022-11-20T03:09:02;18;16.4;11.6
45788;PMS7003;31492;54.856;26.318;2022-11-20T03:14:14;19.5;16.5;11.3
45788;PMS7003;31492;54.856;26.318;2022-11-20T03:19:02;21.2;19.2;12.4
45788;PMS7003;31492;54.856;26.318;2022-11-20T03:24:26;19.4;16.4;12
45788;PMS7003;31492;54.856;26.318;2022-11-20T03:29:03;17.2;15.4;12
45788;PMS7003;31492;54.856;26.318;2022-11-20T03:34:02;17.3;16;11.8
45788;PMS7003;31492;54.856;26.318;2022-11-20T03:39:02;17.4;15.8;11.4
45788;PMS7003;31492;54.856;26.318;2022-11-20T03:44:12;16.8;15.4;10.4
45788;PMS7003;31492;54.856;26.318;2022-11-20T03:49:02;18.4;16.2;12
45788;PMS7003;31492;54.856;26.318;2022-11-20T03:54:03;18.8;16.2;12
45788;PMS7003;31492;54.856;26.318;2022-11-20T03:59:02;21;18;12
45788;PMS7003;31492;54.856;26.318;2022-11-20T04:04:02;22.8;18.2;13.4
45788;PMS7003;31492;54.856;26.318;2022-11-20T04:09:12;19.6;16.6;12.2
45788;PMS7003;31492;54.856;26.318;2022-11-20T04:14:15;19.4;16.2;12.8
45788;PMS7003;31492;54.856;26.318;2022-11-20T04:19:03;20;17;11.8
45788;PMS7003;31492;54.856;26.318;2022-11-20T04:24:10;17.8;15.4;11
45788;PMS7003;31492;54.856;26.318;2022-11-20T04:29:24;22;18.2;13
45788;PMS7003;31492;54.856;26.318;2022-11-20T04:34:36;19.6;14.8;10.2
45788;PMS7003;31492;54.856;26.318;2022-11-20T04:39:24;20.5;17.8;12
45788;PMS7003;31492;54.856;26.318;2022-11-20T04:44:03;22;18.4;12.2
45788;PMS7003;31492;54.856;26.318;2022-11-20T04:49:10;19.6;18.8;12.4
45788;PMS7003;31492;54.856;26.318;2022-11-20T04:54:20;19.2;17;13
45788;PMS7003;31492;54.856;26.318;2022-11-20T04:59:26;22.8;18.3;12.5
45788;PMS7003;31492;54.856;26.318;2022-11-20T05:04:02;21.6;19.8;13.6
45788;PMS7003;31492;54.856;26.318;2022-11-20T05:09:02;20.2;18;12.8
45788;PMS7003;31492;54.856;26.318;2022-11-20T05:14:10;22;18.8;13.6
45788;PMS7003;31492;54.856;26.318;2022-11-20T05:19:40;20.5;18.5;13.5
45788;PMS7003;31492;54.856;26.318;2022-11-20T05:24:02;24;21;14
45788;PMS7003;31492;54.856;26.318;2022-11-20T05:29:14;24;19.4;13
45788;PMS7003;31492;54.856;26.318;2022-11-20T05:34:12;23.8;20.4;14.6
45788;PMS7003;31492;54.856;26.318;2022-11-20T05:39:10;24;20.2;13.8
45788;PMS7003;31492;54.856;26.318;2022-11-20T05:44:02;22.3;19.5;13.3
45788;PMS7003;31492;54.856;26.318;2022-11-20T05:49:12;21;19.6;13.2
45788;PMS7003;31492;54.856;26.318;2022-11-20T05:54:34;24.4;21.2;14.4
45788;PMS7003;31492;54.856;26.318;2022-11-20T05:59:10;22.4;19;12.2
45788;PMS7003;31492;54.856;26.318;2022-11-20T06:04:10;24;18.8;13
45788;PMS7003;31492;54.856;26.318;2022-11-20T06:09:02;21.8;18;12.8
45788;PMS7003;31492;54.856;26.318;2022-11-20T06:14:02;22.4;16.2;11.6
45788;PMS7003;31492;54.856;26.318;2022-11-20T06:19:14;19.8;17.6;13
45788;PMS7003;31492;54.856;26.318;2022-11-20T06:24:02;20.5;16.8;11.5
45788;PMS7003;31492;54.856;26.318;2022-11-20T06:29:02;21;18.4;12.4
45788;PMS7003;31492;54.856;26.318;2022-11-20T06:34:26;22.2;20.2;13.2
45788;PMS7003;31492;54.856;26.318;2022-11-20T06:39:02;20.8;17.6;11.6
45788;PMS7003;31492;54.856;26.318;2022-11-20T06:44:12;21.3;18;12.5
45788;PMS7003;31492;54.856;26.318;2022-11-20T06:49:28;24;19;13.4
45788;PMS7003;31492;54.856;26.318;2022-11-20T06:54:02;22;19.4;12.8
45788;PMS7003;31492;54.856;26.318;2022-11-20T06:59:12;22.2;18.8;12.2
45788;PMS7003;31492;54.856;26.318;2022-11-20T07:04:38;21.8;18.8;12
45788;PMS7003;31492;54.856;26.318;2022-11-20T07:09:02;22.4;20;13.2
45788;PMS7003;31492;54.856;26.318;2022-11-20T07:14:22;22;18.8;13.4
45788;PMS7003;31492;54.856;26.318;2022-11-20T07:19:24;20.4;17.4;11.8
45788;PMS7003;31492;54.856;26.318;2022-11-20T07:24:02;21.4;19.2;13
45788;PMS7003;31492;54.856;26.318;2022-11-20T07:29:14;21;19;12.5
45788;PMS7003;31492;54.856;26.318;2022-11-20T07:34:02;22.8;19.8;15.6
45788;PMS7003;31492;54.856;26.318;2022-11-20T07:39:02;23;19;13
45788;PMS7003;31492;54.856;26.318;2022-11-20T07:44:12;29.2;23.8;15.6
45788;PMS7003;31492;54.856;26.318;2022-11-20T07:49:02;31.3;26.8;18.5
45788;PMS7003;31492;54.856;26.318;2022-11-20T07:54:02;25.6;20.8;13.4
45788;PMS7003;31492;54.856;26.318;2022-11-20T07:59:22;42;35.4;23.2
45788;PMS7003;31492;54.856;26.318;2022-11-20T08:04:02;36.8;30.4;21
45788;PMS7003;31492;54.856;26.318;2022-11-20T08:09:02;22.8;20.3;15.5
45788;PMS7003;31492;54.856;26.318;2022-11-20T08:14:02;36.6;30.2;20.4
45788;PMS7003;31492;54.856;26.318;2022-11-20T08:19:02;34.2;27.8;19.2
45788;PMS7003;31492;54.856;26.318;2022-11-20T08:24:14;21.2;18.8;12.8
45788;PMS7003;31492;54.856;26.318;2022-11-20T08:29:12;18.8;18.5;14.3
45788;PMS7003;31492;54.856;26.318;2022-11-20T08:34:12;20.2;19;11.8
45788;PMS7003;31492;54.856;26.318;2022-11-20T08:39:12;22.2;19;13.6
45788;PMS7003;31492;54.856;26.318;2022-11-20T08:44:03;20;18.4;12.4
45788;PMS7003;31492;54.856;26.318;2022-11-20T08:49:24;18;16.5;11.3
45788;PMS7003;31492;54.856;26.318;2022-11-20T08:54:24;18.8;14.6;10
45788;PMS7003;31492;54.856;26.318;2022-11-20T08:59:12;19.8;15.2;10.4
45788;PMS7003;31492;54.856;26.318;2022-11-20T09:04:12;19.2;14.8;9.8
45788;PMS7003;31492;54.856;26.318;2022-11-20T09:09:48;17.8;15.8;10.6
45788;PMS7003;31492;54.856;26.318;2022-11-20T09:14:02;17.5;15.8;10.8
45788;PMS7003;31492;54.856;26.318;2022-11-20T09:19:12;19.8;14.8;11
45788;PMS7003;31492;54.856;26.318;2022-11-20T09:24:02;18.4;15.2;10.4
45788;PMS7003;31492;54.856;26.318;2022-11-20T09:29:22;20.4;15.6;11.2
45788;PMS7003;31492;54.856;26.318;2022-11-20T09:34:10;19.5;17.8;11.8
45788;PMS7003;31492;54.856;26.318;2022-11-20T09:39:02;21;16.6;11.8
45788;PMS7003;31492;54.856;26.318;2022-11-20T09:44:04;20.2;17;11.6
45788;PMS7003;31492;54.856;26.318;2022-11-20T09:49:06;20.6;16.8;11.4
45788;PMS7003;31492;54.856;26.318;2022-11-20T09:54:13;20.5;15.8;11.5
45788;PMS7003;31492;54.856;26.318;2022-11-20T09:59:03;20.8;19.2;12
45788;PMS7003;31492;54.856;26.318;2022-11-20T10:04:02;20.4;17.8;12.2
45788;PMS7003;31492;54.856;26.318;2022-11-20T10:09:06;20.6;17.8;12.2
45788;PMS7003;31492;54.856;26.318;2022-11-20T10:14:16;23.8;20.5;13.3
45788;PMS7003;31492;54.856;26.318;2022-11-20T10:19:14;21;19.8;12.8
45788;PMS7003;31492;54.856;26.318;2022-11-20T10:24:20;23.4;19.4;12.8
45788;PMS7003;31492;54.856;26.318;2022-11-20T10:29:13;23.6;21.2;13.6
45788;PMS7003;31492;54.856;26.318;2022-11-20T10:34:15;23.5;20.5;14.3
45788;PMS7003;31492;54.856;26.318;2022-11-20T10:39:14;21.2;17.8;13
45788;PMS7003;31492;54.856;26.318;2022-11-20T10:44:03;27.8;23.6;14.2
45788;PMS7003;31492;54.856;26.318;2022-11-20T10:49:22;22.6;20.2;13.8
45788;PMS7003;31492;54.856;26.318;2022-11-20T10:54:06;23.2;19.2;12.4
45788;PMS7003;31492;54.856;26.318;2022-11-20T10:59:28;25.8;23;16.5
45788;PMS7003;31492;54.856;26.318;2022-11-20T11:04:02;24;21;13.2
45788;PMS7003;31492;54.856;26.318;2022-11-20T11:09:04;20;18.4;12.2
45788;PMS7003;31492;54.856;26.318;2022-11-20T11:14:13;20.6;18.4;12.8
45788;PMS7003;31492;54.856;26.318;2022-11-20T11:19:13;22.5;17.3;12.8
45788;PMS7003;31492;54.856;26.318;2022-11-20T11:24:21;22.2;19.6;13
45788;PMS7003;31492;54.856;26.318;2022-11-20T11:29:03;22.4;18.6;12.6
45788;PMS7003;31492;54.856;26.318;2022-11-20T11:34:13;21.4;18.6;12.4
45788;PMS7003;31492;54.856;26.318;2022-11-20T11:39:13;22;20.8;13
45788;PMS7003;31492;54.856;26.318;2022-11-20T11:44:15;22.6;17.2;11.2
45788;PMS7003;31492;54.856;26.318;2022-11-20T11:49:13;20.4;18.4;10.8
45788;PMS7003;31492;54.856;26.318;2022-11-20T11:54:03;19.6;17.4;11.6
45788;PMS7003;31492;54.856;26.318;2022-11-20T11:59:04;19;17.3;11.3
45788;PMS7003;31492;54.856;26.318;2022-11-20T12:04:04;20;17;11.6
45788;PMS7003;31492;54.856;26.318;2022-11-20T12:09:26;22.2;19.2;12.8
45788;PMS7003;31492;54.856;26.318;2022-11-20T12:14:26;19.2;16.4;11.4
45788;PMS7003;31492;54.856;26.318;2022-11-20T12:19:03;16.5;13.8;10.3
45788;PMS7003;31492;54.856;26.318;2022-11-20T12:24:28;21;17.4;12.2
45788;PMS7003;31492;54.856;26.318;2022-11-20T12:29:14;18.2;15.2;10.8
45788;PMS7003;31492;54.856;26.318;2022-11-20T12:34:15;22;18;11.6
45788;PMS7003;31492;54.856;26.318;2022-11-20T12:39:19;22.2;17.4;12
45788;PMS7003;31492;54.856;26.318;2022-11-20T12:44:26;22.8;18.5;12.3
45788;PMS7003;31492;54.856;26.318;2022-11-20T12:49:07;19.4;16.8;12
45788;PMS7003;31492;54.856;26.318;2022-11-20T12:54:22;22.2;18;11.8
45788;PMS7003;31492;54.856;26.318;2022-11-20T12:59:07;19.4;15.2;10.2
45788;PMS7003;31492;54.856;26.318;2022-11-20T13:04:06;18.3;16.8;11.8
45788;PMS7003;31492;54.856;26.318;2022-11-20T13:09:02;17.4;15;11
45788;PMS7003;31492;54.856;26.318;2022-11-20T13:14:04;18.6;15.4;10.6
45788;PMS7003;31492;54.856;26.318;2022-11-20T13:19:02;19.8;17;11.4
45788;PMS7003;31492;54.856;26.318;2022-11-20T13:24:04;20.8;17;10.8
45788;PMS7003;31492;54.856;26.318;2022-11-20T13:29:04;22.6;19.4;13.4
45788;PMS7003;31492;54.856;26.318;2022-11-20T13:34:03;19.4;17;10.8
45788;PMS7003;31492;54.856;26.318;2022-11-20T13:39:35;18.4;14.8;11
45788;PMS7003;31492;54.856;26.318;2022-11-20T13:44:25;15.3;14.3;10
45788;PMS7003;31492;54.856;26.318;2022-11-20T13:49:16;20.4;16.6;10.8
45788;PMS7003;31492;54.856;26.318;2022-11-20T13:54:07;17.8;16.4;10.8
45788;PMS7003;31492;54.856;26.318;2022-11-20T13:59:05;18.2;15.6;10.4
45788;PMS7003;31492;54.856;26.318;2022-11-20T14:04:06;19.3;15.3;11
45788;PMS7003;31492;54.856;26.318;2022-11-20T14:09:25;18.6;14.6;9.8
45788;PMS7003;31492;54.856;26.318;2022-11-20T14:14:13;18.6;15.4;11.4
45788;PMS7003;31492;54.856;26.318;2022-11-20T14:19:23;18.8;15.8;11
45788;PMS7003;31492;54.856;26.318;2022-11-20T14:24:23;18;14.8;10.4
45788;PMS7003;31492;54.856;26.318;2022-11-20T14:29:02;16.5;14.8;11
45788;PMS7003;31492;54.856;26.318;2022-11-20T14:34:02;17.2;13.8;10
45788;PMS7003;31492;54.856;26.318;2022-11-20T14:39:02;19;15.4;11.2
45788;PMS7003;31492;54.856;26.318;2022-11-20T14:44:02;16.8;15;11.4
45788;PMS7003;31492;54.856;26.318;2022-11-20T14:49:02;21;17;11.8
45788;PMS7003;31492;54.856;26.318;2022-11-20T14:54:10;15.8;13.4;9.4
45788;PMS7003;31492;54.856;26.318;2022-11-20T14:59:21;18.6;17.4;11.2
45788;PMS7003;31492;54.856;26.318;2022-11-20T15:04:22;15.8;14;10
45788;PMS7003;31492;54.856;26.318;2022-11-20T15:09:03;16;14.8;10
45788;PMS7003;31492;54.856;26.318;2022-11-20T15:14:03;16.8;15.2;10.8
45788;PMS7003;31492;54.856;26.318;2022-11-20T15:19:09;16.2;14.2;9
45788;PMS7003;31492;54.856;26.318;2022-11-20T15:24:04;18.6;14;10
45788;PMS7003;31492;54.856;26.318;2022-11-20T15:29:26;17.3;15;10.8
45788;PMS7003;31492;54.856;26.318;2022-11-20T15:34:02;19.4;15.4;10.2
45788;PMS7003;31492;54.856;26.318;2022-11-20T15:39:30;21;16.4;10
45788;PMS7003;31492;54.856;26.318;2022-11-20T15:44:03;18.6;15.6;10.6
45788;PMS7003;31492;54.856;26.318;2022-11-20T15:49:34;19;15.5;10.5
45788;PMS7003;31492;54.856;26.318;2022-11-20T15:54:16;19.2;16;11
45788;PMS7003;31492;54.856;26.318;2022-11-20T15:59:03;22.2;18.8;12.4
45788;PMS7003;31492;54.856;26.318;2022-11-20T16:04:20;22.6;20;12.2
45788;PMS7003;31492;54.856;26.318;2022-11-20T16:09:02;20.6;17.4;11.6
45788;PMS7003;31492;54.856;26.318;2022-11-20T16:14:13;18.8;16.3;11.3
45788;PMS7003;31492;54.856;26.318;2022-11-20T16:19:24;28.2;23.4;16.2
45788;PMS7003;31492;54.856;26.318;2022-11-20T16:24:03;22.8;20.2;12.8
45788;PMS7003;31492;54.856;26.318;2022-11-20T16:29:03;22.4;18.4;11.4
45788;PMS7003;31492;54.856;26.318;2022-11-20T16:34:03;17.3;15.3;10.8
45788;PMS7003;31492;54.856;26.318;2022-11-20T16:39:22;22.8;20;12
45788;PMS7003;31492;54.856;26.318;2022-11-20T16:44:05;23.4;18.4;11.2
45788;PMS7003;31492;54.856;26.318;2022-11-20T16:49:03;19.2;17;11.4
45788;PMS7003;31492;54.856;26.318;2022-11-20T16:54:11;24.3;20;12.3
45788;PMS7003;31492;54.856;26.318;2022-11-20T16:59:10;23.8;19.6;13.2
45788;PMS7003;31492;54.856;26.318;2022-11-20T17:04:03;22.2;18.4;12.2
45788;PMS7003;31492;54.856;26.318;2022-11-20T17:09:10;20.6;17;11.4
45788;PMS7003;31492;54.856;26.318;2022-11-20T17:14:02;19.3;15;11.3
45788;PMS7003;31492;54.856;26.318;2022-11-20T17:19:03;20.6;16.2;12
45788;PMS7003;31492;54.856;26.318;2022-11-20T17:24:11;21.2;17.8;11.8
45788;PMS7003;31492;54.856;26.318;2022-11-20T17:29:22;20.2;17.6;11.4
45788;PMS7003;31492;54.856;26.318;2022-11-20T17:34:13;19.8;16.8;12
45788;PMS7003;31492;54.856;26.318;2022-11-20T17:39:02;19.2;16.4;10
45788;PMS7003;31492;54.856;26.318;2022-11-20T17:44:11;20;16.4;11.6
45788;PMS7003;31492;54.856;26.318;2022-11-20T17:49:02;19.8;17.8;12
45788;PMS7003;31492;54.856;26.318;2022-11-20T17:54:23;22.8;18.4;12
45788;PMS7003;31492;54.856;26.318;2022-11-20T17:59:03;19.5;17.8;12.5
45788;PMS7003;31492;54.856;26.318;2022-11-20T18:04:12;20.6;19.2;12.4
45788;PMS7003;31492;54.856;26.318;2022-11-20T18:09:22;22.4;17.4;12.8
45788;PMS7003;31492;54.856;26.318;2022-11-20T18:14:13;19;15;11.4
45788;PMS7003;31492;54.856;26.318;2022-11-20T18:19:47;22.8;19;10.8
45788;PMS7003;31492;54.856;26.318;2022-11-20T18:24:10;21.8;18.6;12.2
45788;PMS7003;31492;54.856;26.318;2022-11-20T18:29:12;22;19.4;13
45788;PMS7003;31492;54.856;26.318;2022-11-20T18:34:11;20.6;18;12
45788;PMS7003;31492;54.856;26.318;2022-11-20T18:39:11;22.5;20;12.5
45788;PMS7003;31492;54.856;26.318;2022-11-20T18:44:04;23;19.6;13.2
45788;PMS7003;31492;54.856;26.318;2022-11-20T18:49:03;22;18.6;11.6
45788;PMS7003;31492;54.856;26.318;2022-11-20T18:54:03;22.8;17.4;11.4
45788;PMS7003;31492;54.856;26.318;2022-11-20T18:59:03;21.5;17;11.3
45788;PMS7003;31492;54.856;26.318;2022-11-20T19:04:05;23.4;18.8;12.8
45788;PMS7003;31492;54.856;26.318;2022-11-20T19:09:12;24;20;12.6
45788;PMS7003;31492;54.856;26.318;2022-11-20T19:14:12;18;17.4;11.8
45788;PMS7003;31492;54.856;26.318;2022-11-20T19:19:13;19.5;15.3;10.8
45788;PMS7003;31492;54.856;26.318;2022-11-20T19:24:03;19.8;17.4;11.2
45788;PMS7003;31492;54.856;26.318;2022-11-20T19:29:02;17.2;16;11
45788;PMS7003;31492;54.856;26.318;2022-11-20T19:34:10;19.8;18.2;11
45788;PMS7003;31492;54.856;26.318;2022-11-20T19:39:03;18.3;16;11.6
45788;PMS7003;31492;54.856;26.318;2022-11-20T19:44:03;18.2;15;10.8
45788;PMS7003;31492;54.856;26.318;2022-11-20T19:49:03;19;16;10.2
45788;PMS7003;31492;54.856;26.318;2022-11-20T19:54:22;16.8;14.2;9.8
45788;PMS7003;31492;54.856;26.318;2022-11-20T19:59:02;18;15.4;10.2
45788;PMS7003;31492;54.856;26.318;2022-11-20T20:04:12;19.3;15.5;10.5
45788;PMS7003;31492;54.856;26.318;2022-11-20T20:09:11;19.2;15.6;10.2
45788;PMS7003;31492;54.856;26.318;2022-11-20T20:14:20;20.4;17.2;11.6
45788;PMS7003;31492;54.856;26.318;2022-11-20T20:19:34;17.8;15;10
45788;PMS7003;31492;54.856;26.318;2022-11-20T20:24:03;20.3;17.8;11
45788;PMS7003;31492;54.856;26.318;2022-11-20T20:29:03;16.8;15;10.4
45788;PMS7003;31492;54.856;26.318;2022-11-20T20:34:12;19;14.2;11
45788;PMS7003;31492;54.856;26.318;2022-11-20T20:39:10;18.2;15.6;10.8
45788;PMS7003;31492;54.856;26.318;2022-11-20T20:44:03;18;16.3;11.3
45788;PMS7003;31492;54.856;26.318;2022-11-20T20:49:22;18;15.2;10.2
45788;PMS7003;31492;54.856;26.318;2022-11-20T20:54:03;18;14.8;10.8
45788;PMS7003;31492;54.856;26.318;2022-11-20T20:59:26;19;16;10.4
45788;PMS7003;31492;54.856;26.318;2022-11-20T21:04:03;20.3;15.8;11
45788;PMS7003;31492;54.856;26.318;2022-11-20T21:09:02;19.5;16.5;11.5
45788;PMS7003;31492;54.856;26.318;2022-11-20T21:14:15;18.3;16.3;10.3
45788;PMS7003;31492;54.856;26.318;2022-11-20T21:19:12;18.8;16.6;10.8
45788;PMS7003;31492;54.856;26.318;2022-11-20T21:24:03;20.6;17.4;11.8
45788;PMS7003;31492;54.856;26.318;2022-11-20T21:29:11;19;16.8;11.4
45788;PMS7003;31492;54.856;26.318;2022-11-20T21:34:03;18.6;16;11
45788;PMS7003;31492;54.856;26.318;2022-11-20T21:39:03;23.8;19;12.8
45788;PMS7003;31492;54.856;26.318;2022-11-20T21:44:13;20.6;18.8;12.2
45788;PMS7003;31492;54.856;26.318;2022-11-20T21:49:03;22.4;19.6;14.2
45788;PMS7003;31492;54.856;26.318;2022-11-20T21:54:03;22.7;20.3;12.7
